sensor_id;sensor_type;location;lat;lon;timestamp;P1;durP1;ratioP1;P2;durP2;ratioP2
35715;SDS011;21840;44.920;8.616;2023-07-09T00:02:23;14.45;;;7.82;;
35715;SDS011;21840;44.920;8.616;2023-07-09T00:04:50;19.02;;;9.05;;
35715;SDS011;21840;44.920;8.616;2023-07-09T00:07:37;20.67;;;7.70;;
35715;SDS011;21840;44.920;8.616;2023-07-09T00:10:02;16.65;;;7.38;;
35715;SDS011;21840;44.920;8.616;2023-07-09T00:12:28;22.52;;;8.75;;
35715;SDS011;21840;44.920;8.616;2023-07-09T00:14:53;15.63;;;7.93;;
35715;SDS011;21840;44.920;8.616;2023-07-09T00:17:29;21.48;;;8.05;;
35715;SDS011;21840;44.920;8.616;2023-07-09T00:19:58;19.90;;;7.20;;
35715;SDS011;21840;44.920;8.616;2023-07-09T00:22:24;13.63;;;7.97;;
35715;SDS011;21840;44.920;8.616;2023-07-09T00:24:52;11.93;;;7.80;;
35715;SDS011;21840;44.920;8.616;2023-07-09T00:27:22;17.27;;;8.20;;
35715;SDS011;21840;44.920;8.616;2023-07-09T00:29:53;16.20;;;7.22;;
35715;SDS011;21840;44.920;8.616;2023-07-09T00:32:19;14.45;;;7.00;;
35715;SDS011;21840;44.920;8.616;2023-07-09T00:34:50;16.52;;;6.97;;
35715;SDS011;21840;44.920;8.616;2023-07-09T00:37:18;18.92;;;7.60;;
35715;SDS011;21840;44.920;8.616;2023-07-09T00:39:46;20.70;;;7.25;;
35715;SDS011;21840;44.920;8.616;2023-07-09T00:42:17;12.55;;;6.88;;
35715;SDS011;21840;44.920;8.616;2023-07-09T00:44:45;10.43;;;6.75;;
35715;SDS011;21840;44.920;8.616;2023-07-09T00:47:21;22.98;;;7.55;;
35715;SDS011;21840;44.920;8.616;2023-07-09T00:49:55;17.33;;;6.38;;
35715;SDS011;21840;44.920;8.616;2023-07-09T00:52:31;23.08;;;6.55;;
35715;SDS011;21840;44.920;8.616;2023-07-09T00:55:04;11.38;;;6.57;;
35715;SDS011;21840;44.920;8.616;2023-07-09T01:00:05;15.45;;;6.53;;
35715;SDS011;21840;44.920;8.616;2023-07-09T01:02:36;17.73;;;6.57;;
35715;SDS011;21840;44.920;8.616;2023-07-09T01:05:03;14.68;;;6.95;;
35715;SDS011;21840;44.920;8.616;2023-07-09T01:07:31;17.75;;;7.18;;
35715;SDS011;21840;44.920;8.616;2023-07-09T01:09:57;12.77;;;6.95;;
35715;SDS011;21840;44.920;8.616;2023-07-09T01:12:23;15.68;;;7.20;;
35715;SDS011;21840;44.920;8.616;2023-07-09T01:14:49;18.60;;;7.45;;
35715;SDS011;21840;44.920;8.616;2023-07-09T01:17:17;12.88;;;7.45;;
35715;SDS011;21840;44.920;8.616;2023-07-09T01:19:47;16.60;;;8.25;;
35715;SDS011;21840;44.920;8.616;2023-07-09T01:27:14;20.23;;;8.50;;
35715;SDS011;21840;44.920;8.616;2023-07-09T01:29:41;17.73;;;8.18;;
35715;SDS011;21840;44.920;8.616;2023-07-09T01:32:09;17.90;;;8.38;;
35715;SDS011;21840;44.920;8.616;2023-07-09T01:34:35;18.65;;;7.88;;
35715;SDS011;21840;44.920;8.616;2023-07-09T01:37:00;14.57;;;8.25;;
35715;SDS011;21840;44.920;8.616;2023-07-09T01:39:26;15.57;;;7.40;;
35715;SDS011;21840;44.920;8.616;2023-07-09T01:41:53;13.48;;;7.22;;
35715;SDS011;21840;44.920;8.616;2023-07-09T01:44:20;16.67;;;7.72;;
35715;SDS011;21840;44.920;8.616;2023-07-09T01:46:46;11.80;;;7.22;;
35715;SDS011;21840;44.920;8.616;2023-07-09T01:49:11;10.85;;;7.18;;
35715;SDS011;21840;44.920;8.616;2023-07-09T01:51:37;15.52;;;7.13;;
35715;SDS011;21840;44.920;8.616;2023-07-09T01:54:04;15.50;;;7.00;;
35715;SDS011;21840;44.920;8.616;2023-07-09T01:56:30;13.20;;;7.05;;
35715;SDS011;21840;44.920;8.616;2023-07-09T01:58:55;10.75;;;7.18;;
35715;SDS011;21840;44.920;8.616;2023-07-09T02:01:27;15.30;;;7.47;;
35715;SDS011;21840;44.920;8.616;2023-07-09T02:03:54;16.10;;;6.60;;
35715;SDS011;21840;44.920;8.616;2023-07-09T02:06:19;12.02;;;6.75;;
35715;SDS011;21840;44.920;8.616;2023-07-09T02:08:45;19.48;;;6.45;;
35715;SDS011;21840;44.920;8.616;2023-07-09T02:11:11;19.40;;;6.53;;
35715;SDS011;21840;44.920;8.616;2023-07-09T02:13:36;14.88;;;6.45;;
35715;SDS011;21840;44.920;8.616;2023-07-09T02:16:02;14.25;;;6.45;;
35715;SDS011;21840;44.920;8.616;2023-07-09T02:18:28;11.57;;;5.68;;
35715;SDS011;21840;44.920;8.616;2023-07-09T02:20:54;12.98;;;5.82;;
35715;SDS011;21840;44.920;8.616;2023-07-09T02:23:26;14.52;;;6.18;;
35715;SDS011;21840;44.920;8.616;2023-07-09T02:25:53;13.07;;;6.53;;
35715;SDS011;21840;44.920;8.616;2023-07-09T02:28:18;14.27;;;6.65;;
35715;SDS011;21840;44.920;8.616;2023-07-09T02:30:44;12.43;;;6.32;;
35715;SDS011;21840;44.920;8.616;2023-07-09T02:33:10;15.57;;;6.03;;
35715;SDS011;21840;44.920;8.616;2023-07-09T02:35:36;13.25;;;5.20;;
35715;SDS011;21840;44.920;8.616;2023-07-09T02:38:02;15.43;;;6.15;;
35715;SDS011;21840;44.920;8.616;2023-07-09T02:40:29;7.97;;;5.22;;
35715;SDS011;21840;44.920;8.616;2023-07-09T02:42:54;10.20;;;5.68;;
35715;SDS011;21840;44.920;8.616;2023-07-09T02:45:20;9.88;;;5.90;;
35715;SDS011;21840;44.920;8.616;2023-07-09T02:47:47;9.90;;;5.57;;
35715;SDS011;21840;44.920;8.616;2023-07-09T02:50:13;9.82;;;5.70;;
35715;SDS011;21840;44.920;8.616;2023-07-09T02:52:39;13.88;;;5.65;;
35715;SDS011;21840;44.920;8.616;2023-07-09T02:55:05;10.45;;;5.78;;
35715;SDS011;21840;44.920;8.616;2023-07-09T02:57:31;11.60;;;5.15;;
35715;SDS011;21840;44.920;8.616;2023-07-09T02:59:57;11.57;;;6.28;;
35715;SDS011;21840;44.920;8.616;2023-07-09T03:02:22;10.93;;;6.20;;
35715;SDS011;21840;44.920;8.616;2023-07-09T03:04:48;9.40;;;6.30;;
35715;SDS011;21840;44.920;8.616;2023-07-09T03:07:13;12.05;;;5.78;;
35715;SDS011;21840;44.920;8.616;2023-07-09T03:09:39;13.13;;;6.40;;
35715;SDS011;21840;44.920;8.616;2023-07-09T03:12:05;10.40;;;6.38;;
35715;SDS011;21840;44.920;8.616;2023-07-09T03:14:31;11.30;;;6.45;;
35715;SDS011;21840;44.920;8.616;2023-07-09T03:16:57;13.27;;;6.05;;
35715;SDS011;21840;44.920;8.616;2023-07-09T03:19:23;12.70;;;6.57;;
35715;SDS011;21840;44.920;8.616;2023-07-09T03:21:48;14.70;;;6.30;;
35715;SDS011;21840;44.920;8.616;2023-07-09T03:24:14;20.45;;;6.45;;
35715;SDS011;21840;44.920;8.616;2023-07-09T03:26:44;11.45;;;5.63;;
35715;SDS011;21840;44.920;8.616;2023-07-09T03:29:12;9.93;;;6.50;;
35715;SDS011;21840;44.920;8.616;2023-07-09T03:31:38;14.80;;;6.53;;
35715;SDS011;21840;44.920;8.616;2023-07-09T03:34:04;14.27;;;5.95;;
35715;SDS011;21840;44.920;8.616;2023-07-09T03:36:29;9.02;;;5.72;;
35715;SDS011;21840;44.920;8.616;2023-07-09T03:38:55;13.73;;;6.18;;
35715;SDS011;21840;44.920;8.616;2023-07-09T03:41:24;19.02;;;6.63;;
35715;SDS011;21840;44.920;8.616;2023-07-09T03:43:49;10.52;;;5.95;;
35715;SDS011;21840;44.920;8.616;2023-07-09T03:46:17;10.23;;;6.55;;
35715;SDS011;21840;44.920;8.616;2023-07-09T03:48:43;13.85;;;6.45;;
35715;SDS011;21840;44.920;8.616;2023-07-09T03:51:08;12.35;;;6.18;;
35715;SDS011;21840;44.920;8.616;2023-07-09T03:53:34;11.85;;;6.45;;
35715;SDS011;21840;44.920;8.616;2023-07-09T03:55:59;18.60;;;6.80;;
35715;SDS011;21840;44.920;8.616;2023-07-09T03:58:25;9.75;;;5.75;;
35715;SDS011;21840;44.920;8.616;2023-07-09T04:00:51;14.65;;;6.97;;
35715;SDS011;21840;44.920;8.616;2023-07-09T04:03:17;13.73;;;6.60;;
35715;SDS011;21840;44.920;8.616;2023-07-09T04:05:42;10.85;;;6.20;;
35715;SDS011;21840;44.920;8.616;2023-07-09T04:08:08;21.70;;;7.43;;
35715;SDS011;21840;44.920;8.616;2023-07-09T04:10:33;10.57;;;7.03;;
35715;SDS011;21840;44.920;8.616;2023-07-09T04:12:59;16.65;;;6.68;;
35715;SDS011;21840;44.920;8.616;2023-07-09T04:15:25;15.32;;;6.70;;
35715;SDS011;21840;44.920;8.616;2023-07-09T04:17:51;10.80;;;6.70;;
35715;SDS011;21840;44.920;8.616;2023-07-09T04:20:17;12.15;;;6.90;;
35715;SDS011;21840;44.920;8.616;2023-07-09T04:22:43;14.55;;;7.07;;
35715;SDS011;21840;44.920;8.616;2023-07-09T04:25:09;12.27;;;6.40;;
35715;SDS011;21840;44.920;8.616;2023-07-09T04:27:36;13.75;;;7.07;;
35715;SDS011;21840;44.920;8.616;2023-07-09T04:30:03;12.38;;;6.50;;
35715;SDS011;21840;44.920;8.616;2023-07-09T04:32:30;17.05;;;7.60;;
35715;SDS011;21840;44.920;8.616;2023-07-09T04:34:55;12.27;;;7.07;;
35715;SDS011;21840;44.920;8.616;2023-07-09T04:37:21;11.88;;;6.88;;
35715;SDS011;21840;44.920;8.616;2023-07-09T04:39:46;10.55;;;6.35;;
35715;SDS011;21840;44.920;8.616;2023-07-09T04:42:13;9.60;;;6.43;;
35715;SDS011;21840;44.920;8.616;2023-07-09T04:44:40;11.73;;;6.90;;
35715;SDS011;21840;44.920;8.616;2023-07-09T04:47:06;10.43;;;6.88;;
35715;SDS011;21840;44.920;8.616;2023-07-09T04:49:32;11.80;;;7.00;;
35715;SDS011;21840;44.920;8.616;2023-07-09T04:51:58;9.30;;;6.95;;
35715;SDS011;21840;44.920;8.616;2023-07-09T04:54:25;10.88;;;6.28;;
35715;SDS011;21840;44.920;8.616;2023-07-09T04:56:51;10.98;;;5.80;;
35715;SDS011;21840;44.920;8.616;2023-07-09T04:59:16;12.07;;;6.60;;
35715;SDS011;21840;44.920;8.616;2023-07-09T05:01:42;13.07;;;7.22;;
35715;SDS011;21840;44.920;8.616;2023-07-09T05:14:44;13.68;;;6.43;;
35715;SDS011;21840;44.920;8.616;2023-07-09T05:17:10;11.32;;;6.43;;
35715;SDS011;21840;44.920;8.616;2023-07-09T05:19:35;12.75;;;6.80;;
35715;SDS011;21840;44.920;8.616;2023-07-09T05:22:01;12.30;;;6.82;;
35715;SDS011;21840;44.920;8.616;2023-07-09T05:24:26;19.40;;;7.78;;
35715;SDS011;21840;44.920;8.616;2023-07-09T05:26:55;9.50;;;6.10;;
35715;SDS011;21840;44.920;8.616;2023-07-09T05:29:20;11.45;;;6.63;;
35715;SDS011;21840;44.920;8.616;2023-07-09T05:31:48;14.38;;;6.85;;
35715;SDS011;21840;44.920;8.616;2023-07-09T05:34:14;9.07;;;6.40;;
35715;SDS011;21840;44.920;8.616;2023-07-09T05:36:39;11.07;;;6.53;;
35715;SDS011;21840;44.920;8.616;2023-07-09T05:39:05;10.98;;;7.07;;
35715;SDS011;21840;44.920;8.616;2023-07-09T05:41:31;12.10;;;6.72;;
35715;SDS011;21840;44.920;8.616;2023-07-09T05:43:56;14.80;;;7.00;;
35715;SDS011;21840;44.920;8.616;2023-07-09T05:46:22;12.88;;;7.32;;
35715;SDS011;21840;44.920;8.616;2023-07-09T05:48:48;14.73;;;6.85;;
35715;SDS011;21840;44.920;8.616;2023-07-09T05:51:16;14.05;;;7.05;;
35715;SDS011;21840;44.920;8.616;2023-07-09T05:53:41;12.02;;;6.30;;
35715;SDS011;21840;44.920;8.616;2023-07-09T05:56:07;15.48;;;7.15;;
35715;SDS011;21840;44.920;8.616;2023-07-09T05:58:33;7.95;;;5.97;;
35715;SDS011;21840;44.920;8.616;2023-07-09T06:00:58;11.52;;;6.70;;
35715;SDS011;21840;44.920;8.616;2023-07-09T06:03:24;19.30;;;7.05;;
35715;SDS011;21840;44.920;8.616;2023-07-09T06:05:52;11.48;;;6.97;;
35715;SDS011;21840;44.920;8.616;2023-07-09T06:08:18;12.10;;;6.47;;
35715;SDS011;21840;44.920;8.616;2023-07-09T06:10:54;11.73;;;6.78;;
35715;SDS011;21840;44.920;8.616;2023-07-09T06:13:22;13.90;;;7.40;;
35715;SDS011;21840;44.920;8.616;2023-07-09T06:15:48;11.25;;;6.60;;
35715;SDS011;21840;44.920;8.616;2023-07-09T06:18:15;10.40;;;6.20;;
35715;SDS011;21840;44.920;8.616;2023-07-09T06:20:41;8.85;;;6.28;;
35715;SDS011;21840;44.920;8.616;2023-07-09T06:23:06;12.40;;;6.72;;
35715;SDS011;21840;44.920;8.616;2023-07-09T06:25:34;11.85;;;6.75;;
35715;SDS011;21840;44.920;8.616;2023-07-09T06:28:03;16.67;;;6.90;;
35715;SDS011;21840;44.920;8.616;2023-07-09T06:30:28;9.75;;;6.55;;
35715;SDS011;21840;44.920;8.616;2023-07-09T06:32:54;11.80;;;6.55;;
35715;SDS011;21840;44.920;8.616;2023-07-09T06:35:19;14.07;;;6.78;;
35715;SDS011;21840;44.920;8.616;2023-07-09T06:37:44;15.02;;;6.60;;
35715;SDS011;21840;44.920;8.616;2023-07-09T06:40:10;10.43;;;6.63;;
35715;SDS011;21840;44.920;8.616;2023-07-09T06:42:37;15.35;;;6.70;;
35715;SDS011;21840;44.920;8.616;2023-07-09T06:45:12;10.13;;;6.00;;
35715;SDS011;21840;44.920;8.616;2023-07-09T06:47:37;14.82;;;6.60;;
35715;SDS011;21840;44.920;8.616;2023-07-09T06:50:03;9.15;;;6.82;;
35715;SDS011;21840;44.920;8.616;2023-07-09T06:52:29;10.32;;;6.10;;
35715;SDS011;21840;44.920;8.616;2023-07-09T06:54:54;15.63;;;6.88;;
35715;SDS011;21840;44.920;8.616;2023-07-09T06:57:19;9.70;;;6.70;;
35715;SDS011;21840;44.920;8.616;2023-07-09T06:59:45;11.05;;;7.22;;
35715;SDS011;21840;44.920;8.616;2023-07-09T07:02:10;9.18;;;5.60;;
35715;SDS011;21840;44.920;8.616;2023-07-09T07:04:36;9.30;;;5.22;;
35715;SDS011;21840;44.920;8.616;2023-07-09T07:07:05;11.63;;;6.43;;
35715;SDS011;21840;44.920;8.616;2023-07-09T07:09:31;10.30;;;6.63;;
35715;SDS011;21840;44.920;8.616;2023-07-09T07:11:56;9.55;;;6.40;;
35715;SDS011;21840;44.920;8.616;2023-07-09T07:14:22;11.13;;;5.82;;
35715;SDS011;21840;44.920;8.616;2023-07-09T07:16:47;13.38;;;6.05;;
35715;SDS011;21840;44.920;8.616;2023-07-09T07:19:12;9.13;;;6.00;;
35715;SDS011;21840;44.920;8.616;2023-07-09T07:21:38;8.88;;;5.97;;
35715;SDS011;21840;44.920;8.616;2023-07-09T07:24:03;12.73;;;6.10;;
35715;SDS011;21840;44.920;8.616;2023-07-09T07:26:29;9.98;;;6.20;;
35715;SDS011;21840;44.920;8.616;2023-07-09T07:28:54;12.75;;;6.60;;
35715;SDS011;21840;44.920;8.616;2023-07-09T07:31:20;8.48;;;5.85;;
35715;SDS011;21840;44.920;8.616;2023-07-09T07:33:48;9.05;;;6.00;;
35715;SDS011;21840;44.920;8.616;2023-07-09T07:36:13;12.13;;;5.45;;
35715;SDS011;21840;44.920;8.616;2023-07-09T07:38:39;8.65;;;5.78;;
35715;SDS011;21840;44.920;8.616;2023-07-09T07:41:04;12.48;;;6.15;;
35715;SDS011;21840;44.920;8.616;2023-07-09T07:43:31;9.85;;;6.32;;
35715;SDS011;21840;44.920;8.616;2023-07-09T07:45:56;9.13;;;6.32;;
35715;SDS011;21840;44.920;8.616;2023-07-09T07:48:22;15.43;;;6.30;;
35715;SDS011;21840;44.920;8.616;2023-07-09T07:50:47;14.43;;;6.28;;
35715;SDS011;21840;44.920;8.616;2023-07-09T07:53:13;10.00;;;5.47;;
35715;SDS011;21840;44.920;8.616;2023-07-09T07:55:40;16.70;;;6.32;;
35715;SDS011;21840;44.920;8.616;2023-07-09T07:58:07;9.30;;;5.95;;
35715;SDS011;21840;44.920;8.616;2023-07-09T08:00:36;14.15;;;5.75;;
35715;SDS011;21840;44.920;8.616;2023-07-09T08:03:01;11.98;;;5.68;;
35715;SDS011;21840;44.920;8.616;2023-07-09T08:05:26;13.85;;;5.78;;
35715;SDS011;21840;44.920;8.616;2023-07-09T08:07:52;7.28;;;5.65;;
35715;SDS011;21840;44.920;8.616;2023-07-09T08:10:20;18.23;;;5.70;;
35715;SDS011;21840;44.920;8.616;2023-07-09T08:12:46;11.88;;;6.00;;
35715;SDS011;21840;44.920;8.616;2023-07-09T08:15:11;10.50;;;6.60;;
35715;SDS011;21840;44.920;8.616;2023-07-09T08:17:37;12.10;;;5.70;;
35715;SDS011;21840;44.920;8.616;2023-07-09T08:20:02;8.23;;;5.53;;
35715;SDS011;21840;44.920;8.616;2023-07-09T08:22:28;11.93;;;6.10;;
35715;SDS011;21840;44.920;8.616;2023-07-09T08:24:53;13.45;;;6.43;;
35715;SDS011;21840;44.920;8.616;2023-07-09T08:27:19;12.68;;;6.55;;
35715;SDS011;21840;44.920;8.616;2023-07-09T08:29:44;9.25;;;5.53;;
35715;SDS011;21840;44.920;8.616;2023-07-09T08:32:11;11.80;;;6.68;;
35715;SDS011;21840;44.920;8.616;2023-07-09T08:34:37;11.30;;;6.13;;
35715;SDS011;21840;44.920;8.616;2023-07-09T08:37:04;13.55;;;6.50;;
35715;SDS011;21840;44.920;8.616;2023-07-09T08:39:31;10.70;;;5.90;;
35715;SDS011;21840;44.920;8.616;2023-07-09T08:42:00;18.98;;;6.18;;
35715;SDS011;21840;44.920;8.616;2023-07-09T08:44:45;10.00;;;5.93;;
35715;SDS011;21840;44.920;8.616;2023-07-09T08:50:22;10.40;;;6.03;;
35715;SDS011;21840;44.920;8.616;2023-07-09T08:52:51;13.10;;;5.63;;
35715;SDS011;21840;44.920;8.616;2023-07-09T08:55:20;13.10;;;5.85;;
35715;SDS011;21840;44.920;8.616;2023-07-09T08:57:49;14.75;;;6.20;;
35715;SDS011;21840;44.920;8.616;2023-07-09T09:00:28;9.82;;;6.10;;
35715;SDS011;21840;44.920;8.616;2023-07-09T09:03:01;213.43;;;19.45;;
35715;SDS011;21840;44.920;8.616;2023-07-09T09:05:28;12.00;;;6.10;;
35715;SDS011;21840;44.920;8.616;2023-07-09T09:08:05;17.60;;;6.80;;
35715;SDS011;21840;44.920;8.616;2023-07-09T09:10:41;10.85;;;6.13;;
35715;SDS011;21840;44.920;8.616;2023-07-09T09:13:12;15.23;;;5.93;;
35715;SDS011;21840;44.920;8.616;2023-07-09T09:15:40;9.73;;;5.78;;
35715;SDS011;21840;44.920;8.616;2023-07-09T09:18:14;11.68;;;6.60;;
35715;SDS011;21840;44.920;8.616;2023-07-09T09:20:49;10.23;;;6.18;;
35715;SDS011;21840;44.920;8.616;2023-07-09T09:23:22;11.27;;;6.28;;
35715;SDS011;21840;44.920;8.616;2023-07-09T09:25:57;10.88;;;6.22;;
35715;SDS011;21840;44.920;8.616;2023-07-09T09:28:27;12.10;;;5.50;;
35715;SDS011;21840;44.920;8.616;2023-07-09T09:30:52;8.55;;;6.20;;
35715;SDS011;21840;44.920;8.616;2023-07-09T09:33:18;9.20;;;5.43;;
35715;SDS011;21840;44.920;8.616;2023-07-09T09:35:44;11.43;;;6.20;;
35715;SDS011;21840;44.920;8.616;2023-07-09T09:38:11;13.65;;;6.45;;
35715;SDS011;21840;44.920;8.616;2023-07-09T09:40:40;10.98;;;5.35;;
35715;SDS011;21840;44.920;8.616;2023-07-09T09:43:16;10.40;;;5.50;;
35715;SDS011;21840;44.920;8.616;2023-07-09T09:45:49;11.73;;;5.95;;
35715;SDS011;21840;44.920;8.616;2023-07-09T09:48:16;10.60;;;5.95;;
35715;SDS011;21840;44.920;8.616;2023-07-09T09:50:44;10.35;;;4.72;;
35715;SDS011;21840;44.920;8.616;2023-07-09T09:53:16;9.35;;;5.63;;
35715;SDS011;21840;44.920;8.616;2023-07-09T09:55:46;8.07;;;5.30;;
35715;SDS011;21840;44.920;8.616;2023-07-09T09:58:14;9.57;;;4.97;;
35715;SDS011;21840;44.920;8.616;2023-07-09T10:00:46;9.55;;;5.38;;
35715;SDS011;21840;44.920;8.616;2023-07-09T10:03:15;12.35;;;5.68;;
35715;SDS011;21840;44.920;8.616;2023-07-09T10:05:51;7.97;;;5.10;;
35715;SDS011;21840;44.920;8.616;2023-07-09T10:11:06;8.23;;;4.72;;
35715;SDS011;21840;44.920;8.616;2023-07-09T10:13:37;11.23;;;5.90;;
35715;SDS011;21840;44.920;8.616;2023-07-09T10:16:17;10.40;;;5.30;;
35715;SDS011;21840;44.920;8.616;2023-07-09T10:19:12;8.98;;;5.28;;
35715;SDS011;21840;44.920;8.616;2023-07-09T10:21:51;11.57;;;5.50;;
35715;SDS011;21840;44.920;8.616;2023-07-09T10:24:43;11.07;;;5.55;;
35715;SDS011;21840;44.920;8.616;2023-07-09T10:27:45;15.68;;;5.50;;
35715;SDS011;21840;44.920;8.616;2023-07-09T10:30:26;9.57;;;4.97;;
35715;SDS011;21840;44.920;8.616;2023-07-09T10:33:13;10.35;;;4.72;;
35715;SDS011;21840;44.920;8.616;2023-07-09T10:41:13;10.15;;;5.07;;
35715;SDS011;21840;44.920;8.616;2023-07-09T10:43:44;8.40;;;5.43;;
35715;SDS011;21840;44.920;8.616;2023-07-09T10:46:16;8.85;;;5.22;;
35715;SDS011;21840;44.920;8.616;2023-07-09T10:48:46;9.18;;;5.47;;
35715;SDS011;21840;44.920;8.616;2023-07-09T10:54:04;9.13;;;4.82;;
35715;SDS011;21840;44.920;8.616;2023-07-09T10:56:40;7.97;;;5.43;;
35715;SDS011;21840;44.920;8.616;2023-07-09T10:59:20;8.65;;;5.47;;
35715;SDS011;21840;44.920;8.616;2023-07-09T11:01:55;10.77;;;5.32;;
35715;SDS011;21840;44.920;8.616;2023-07-09T11:04:36;12.05;;;5.80;;
35715;SDS011;21840;44.920;8.616;2023-07-09T11:07:09;10.07;;;5.35;;
35715;SDS011;21840;44.920;8.616;2023-07-09T11:09:41;13.25;;;6.15;;
35715;SDS011;21840;44.920;8.616;2023-07-09T11:12:10;9.50;;;5.60;;
35715;SDS011;21840;44.920;8.616;2023-07-09T11:17:12;9.63;;;5.78;;
35715;SDS011;21840;44.920;8.616;2023-07-09T11:19:47;10.70;;;5.60;;
35715;SDS011;21840;44.920;8.616;2023-07-09T11:22:21;9.55;;;4.97;;
35715;SDS011;21840;44.920;8.616;2023-07-09T11:25:03;11.13;;;5.53;;
35715;SDS011;21840;44.920;8.616;2023-07-09T11:27:29;9.38;;;6.30;;
35715;SDS011;21840;44.920;8.616;2023-07-09T11:29:59;11.35;;;5.38;;
35715;SDS011;21840;44.920;8.616;2023-07-09T11:32:27;8.68;;;5.10;;
35715;SDS011;21840;44.920;8.616;2023-07-09T11:34:53;10.77;;;5.00;;
35715;SDS011;21840;44.920;8.616;2023-07-09T11:37:23;7.43;;;4.40;;
35715;SDS011;21840;44.920;8.616;2023-07-09T11:39:51;7.50;;;4.97;;
35715;SDS011;21840;44.920;8.616;2023-07-09T11:42:33;5.80;;;4.80;;
35715;SDS011;21840;44.920;8.616;2023-07-09T11:50:22;10.35;;;4.47;;
35715;SDS011;21840;44.920;8.616;2023-07-09T11:53:04;11.50;;;4.53;;
35715;SDS011;21840;44.920;8.616;2023-07-09T11:55:43;9.70;;;5.32;;
35715;SDS011;21840;44.920;8.616;2023-07-09T11:58:12;9.77;;;5.32;;
35715;SDS011;21840;44.920;8.616;2023-07-09T12:00:40;8.35;;;4.72;;
35715;SDS011;21840;44.920;8.616;2023-07-09T12:03:15;7.55;;;5.15;;
35715;SDS011;21840;44.920;8.616;2023-07-09T12:05:50;10.60;;;5.15;;
35715;SDS011;21840;44.920;8.616;2023-07-09T12:08:18;9.07;;;4.60;;
35715;SDS011;21840;44.920;8.616;2023-07-09T12:10:55;9.02;;;4.50;;
35715;SDS011;21840;44.920;8.616;2023-07-09T12:13:20;9.82;;;4.55;;
35715;SDS011;21840;44.920;8.616;2023-07-09T12:15:46;10.35;;;4.60;;
35715;SDS011;21840;44.920;8.616;2023-07-09T12:18:13;6.63;;;4.55;;
35715;SDS011;21840;44.920;8.616;2023-07-09T12:20:40;22.42;;;9.02;;
35715;SDS011;21840;44.920;8.616;2023-07-09T12:23:48;37.50;;;10.82;;
35715;SDS011;21840;44.920;8.616;2023-07-09T12:25:59;25.90;;;9.23;;
35715;SDS011;21840;44.920;8.616;2023-07-09T12:28:26;13.32;;;5.57;;
35715;SDS011;21840;44.920;8.616;2023-07-09T12:30:52;7.28;;;4.63;;
35715;SDS011;21840;44.920;8.616;2023-07-09T12:33:19;8.98;;;4.30;;
35715;SDS011;21840;44.920;8.616;2023-07-09T12:35:46;9.27;;;4.78;;
35715;SDS011;21840;44.920;8.616;2023-07-09T12:38:22;9.35;;;4.20;;
35715;SDS011;21840;44.920;8.616;2023-07-09T12:40:50;10.20;;;4.47;;
35715;SDS011;21840;44.920;8.616;2023-07-09T12:43:24;10.43;;;3.45;;
35715;SDS011;21840;44.920;8.616;2023-07-09T12:45:52;7.55;;;4.15;;
35715;SDS011;21840;44.920;8.616;2023-07-09T12:48:21;8.52;;;4.43;;
35715;SDS011;21840;44.920;8.616;2023-07-09T12:50:49;10.85;;;3.83;;
35715;SDS011;21840;44.920;8.616;2023-07-09T12:53:17;13.63;;;3.78;;
35715;SDS011;21840;44.920;8.616;2023-07-09T12:55:46;5.03;;;3.38;;
35715;SDS011;21840;44.920;8.616;2023-07-09T12:58:18;7.15;;;3.88;;
35715;SDS011;21840;44.920;8.616;2023-07-09T13:00:49;12.60;;;4.07;;
35715;SDS011;21840;44.920;8.616;2023-07-09T13:03:29;9.98;;;3.92;;
35715;SDS011;21840;44.920;8.616;2023-07-09T13:06:00;8.77;;;4.00;;
35715;SDS011;21840;44.920;8.616;2023-07-09T13:08:32;5.60;;;3.42;;
35715;SDS011;21840;44.920;8.616;2023-07-09T13:11:13;7.25;;;3.80;;
35715;SDS011;21840;44.920;8.616;2023-07-09T13:13:40;5.45;;;4.18;;
35715;SDS011;21840;44.920;8.616;2023-07-09T13:16:06;12.02;;;4.40;;
35715;SDS011;21840;44.920;8.616;2023-07-09T13:18:31;8.00;;;4.30;;
35715;SDS011;21840;44.920;8.616;2023-07-09T13:20:57;10.65;;;4.00;;
35715;SDS011;21840;44.920;8.616;2023-07-09T13:23:25;7.78;;;3.78;;
35715;SDS011;21840;44.920;8.616;2023-07-09T13:25:52;6.80;;;4.15;;
35715;SDS011;21840;44.920;8.616;2023-07-09T13:28:22;6.32;;;3.30;;
35715;SDS011;21840;44.920;8.616;2023-07-09T13:31:10;9.07;;;4.13;;
35715;SDS011;21840;44.920;8.616;2023-07-09T13:33:36;6.40;;;4.10;;
35715;SDS011;21840;44.920;8.616;2023-07-09T13:36:02;12.32;;;4.25;;
35715;SDS011;21840;44.920;8.616;2023-07-09T13:38:31;5.80;;;3.97;;
35715;SDS011;21840;44.920;8.616;2023-07-09T13:40:57;8.40;;;3.75;;
35715;SDS011;21840;44.920;8.616;2023-07-09T13:43:29;7.20;;;4.72;;
35715;SDS011;21840;44.920;8.616;2023-07-09T13:46:01;11.52;;;4.25;;
35715;SDS011;21840;44.920;8.616;2023-07-09T13:48:29;7.68;;;4.30;;
35715;SDS011;21840;44.920;8.616;2023-07-09T13:50:55;5.63;;;3.78;;
35715;SDS011;21840;44.920;8.616;2023-07-09T13:53:23;7.40;;;4.38;;
35715;SDS011;21840;44.920;8.616;2023-07-09T13:55:51;6.05;;;4.10;;
35715;SDS011;21840;44.920;8.616;2023-07-09T13:58:21;6.85;;;3.97;;
35715;SDS011;21840;44.920;8.616;2023-07-09T14:00:48;6.13;;;3.90;;
35715;SDS011;21840;44.920;8.616;2023-07-09T14:03:17;10.10;;;3.95;;
35715;SDS011;21840;44.920;8.616;2023-07-09T14:05:45;9.38;;;3.85;;
35715;SDS011;21840;44.920;8.616;2023-07-09T14:08:11;7.57;;;4.10;;
35715;SDS011;21840;44.920;8.616;2023-07-09T14:10:37;12.88;;;4.70;;
35715;SDS011;21840;44.920;8.616;2023-07-09T14:13:03;6.47;;;3.80;;
35715;SDS011;21840;44.920;8.616;2023-07-09T14:15:29;5.97;;;3.65;;
35715;SDS011;21840;44.920;8.616;2023-07-09T14:17:54;10.93;;;3.90;;
35715;SDS011;21840;44.920;8.616;2023-07-09T14:20:21;9.52;;;4.25;;
35715;SDS011;21840;44.920;8.616;2023-07-09T14:22:47;6.00;;;3.80;;
35715;SDS011;21840;44.920;8.616;2023-07-09T14:25:20;7.45;;;3.70;;
35715;SDS011;21840;44.920;8.616;2023-07-09T14:27:48;8.20;;;4.53;;
35715;SDS011;21840;44.920;8.616;2023-07-09T14:30:18;6.23;;;3.80;;
35715;SDS011;21840;44.920;8.616;2023-07-09T14:32:46;5.90;;;4.00;;
35715;SDS011;21840;44.920;8.616;2023-07-09T14:35:25;11.38;;;4.10;;
35715;SDS011;21840;44.920;8.616;2023-07-09T14:37:52;8.23;;;4.40;;
35715;SDS011;21840;44.920;8.616;2023-07-09T14:40:19;9.45;;;4.32;;
35715;SDS011;21840;44.920;8.616;2023-07-09T14:42:46;6.97;;;4.07;;
35715;SDS011;21840;44.920;8.616;2023-07-09T14:45:16;7.07;;;4.00;;
35715;SDS011;21840;44.920;8.616;2023-07-09T14:47:45;10.73;;;4.40;;
35715;SDS011;21840;44.920;8.616;2023-07-09T14:50:11;7.60;;;3.90;;
35715;SDS011;21840;44.920;8.616;2023-07-09T14:52:36;7.72;;;4.28;;
35715;SDS011;21840;44.920;8.616;2023-07-09T14:55:03;6.50;;;3.97;;
35715;SDS011;21840;44.920;8.616;2023-07-09T14:57:29;8.57;;;4.45;;
35715;SDS011;21840;44.920;8.616;2023-07-09T14:59:55;11.20;;;4.72;;
35715;SDS011;21840;44.920;8.616;2023-07-09T15:02:29;5.82;;;4.13;;
35715;SDS011;21840;44.920;8.616;2023-07-09T15:04:56;6.78;;;4.50;;
35715;SDS011;21840;44.920;8.616;2023-07-09T15:07:21;12.20;;;4.47;;
35715;SDS011;21840;44.920;8.616;2023-07-09T15:09:47;8.38;;;4.20;;
35715;SDS011;21840;44.920;8.616;2023-07-09T15:12:19;14.02;;;4.38;;
35715;SDS011;21840;44.920;8.616;2023-07-09T15:14:49;6.47;;;4.18;;
35715;SDS011;21840;44.920;8.616;2023-07-09T15:17:14;8.88;;;3.92;;
35715;SDS011;21840;44.920;8.616;2023-07-09T15:19:40;6.97;;;3.35;;
35715;SDS011;21840;44.920;8.616;2023-07-09T15:22:10;8.35;;;3.60;;
35715;SDS011;21840;44.920;8.616;2023-07-09T15:24:43;6.75;;;3.90;;
35715;SDS011;21840;44.920;8.616;2023-07-09T15:27:10;10.85;;;3.42;;